Tiempo atmosférico en la estación meteorológica de Aragüés Del Puerto, Huesca (1120 m.)



Fecha
DESCASC
Temp. máxima en grados centígrados (hora)
DESCASC
Temp. mínima en grados centígrados (hora)
DESCASC
Temp. media en grados centígrados
DESCASC
Racha de viento máxima en m/sg (hora)
DESCASC
Velocidad máxima media en intervalos de 10 minutos(hora)
DESCASC
Precipitaciones diarias en mm
DESCASC
Precipitaciones de 00:00 a 06:00 en mm
DESCASC
Precipitaciones de 06:00 a 12:00 en mm
DESCASC
Precipitaciones de 12:00 a 18:00 en mm
DESCASC
Precipitaciones de 18:00 a 24:00 en mm
DESCASC
28-02-2021 7.2 (15:00) 2.1 (02:10) 4.6 11.94 (18:00) 5.28 (12:30) 3.6 0 0.2 3.4 0
27-02-2021 16.7 (15:50) 2.5 (08:10) 9.6 9.17 (17:40) 5.83 (18:20) 0 0 0 0 0
26-02-2021 17.4 (15:20) 3.8 (06:10) 10.6 6.11 (13:20) 3.61 (13:10) 0 0 0 0 0
25-02-2021 16.4 (15:20) 3.4 (00:00) 9.9 6.94 (05:00) 5 (05:00) 0 0 0 0 0
24-02-2021 15.7 (13:40) 6.9 (00:00) 11.3 14.72 (13:10) 8.61 (12:00) 0 0 0 0 0
23-02-2021 12.7 (16:40) 3.1 (00:00) 7.9 14.72 (13:50) 8.06 (13:50) 0.2 0 0.2 0 0
22-02-2021 9.6 (05:00) 4.8 (00:00) 7.2 13.33 (04:00) 7.22 (08:50) 37.4 4 20.6 11.6 1.2
21-02-2021 14.8 (13:20) 8.3 (00:00) 11.6 17.5 (11:50) 9.72 (12:10) 1.6 0 0 0 1.6
20-02-2021 18 (14:10) 8.7 (00:00) 13.3 16.39 (23:30) 8.61 (23:00) 0 0 0 0 0
19-02-2021 14.8 (14:50) 5.5 (00:00) 10.2 10 (14:40) 6.11 (12:00) 0 0 0 0 0
18-02-2021 14.7 (15:00) 7.2 (00:00) 10.9 9.17 (15:40) 5 (12:20) 0 0 0 0 0
17-02-2021 13.9 (15:30) 5.5 (00:00) 9.7 6.11 (23:40) 4.17 (22:40) 0 0 0 0 0
16-02-2021 14.6 (13:50) 3.2 (00:00) 8.9 6.39 (07:50) 4.72 (08:00) 0 0 0 0 0
15-02-2021 13.7 (15:00) 3.8 (00:00) 8.7 6.11 (12:50) 4.72 (20:20) 0 0 0 0 0
14-02-2021 11.9 (14:30) 0.9 (00:00) 6.4 8.89 (16:30) 5.83 (12:10) 0 0 0 0 0
13-02-2021 12.3 (13:50) 2.4 (00:00) 7.4 7.22 (16:40) 3.61 (16:40) 0 0 0 0 0
12-02-2021 9.7 (16:00) 5.9 (00:00) 7.8 12.5 (18:20) 4.44 (20:30) 15.6 0 8 5.8 1.8
11-02-2021 -- (--) -- (--) -- -- (--) -- (--) -- -- -- -- --
10-02-2021 -- (--) -- (--) -- -- (--) -- (--) -- -- -- -- --
09-02-2021 -- (--) -- (--) -- -- (--) -- (--) -- 0 5.8 -- --
08-02-2021 5.3 (17:20) 0.6 (00:00) 3 5 (15:20) 2.5 (07:30) 14.2 5 5.2 1.8 2.2
07-02-2021 -- (--) -- (--) -- -- (--) -- (--) -- -- -- -- --
06-02-2021 -- (--) -- (--) -- -- (--) -- (--) -- -- -- -- --
05-02-2021 -- (--) -- (--) -- -- (--) -- (--) -- 0 0 -- --
04-02-2021 14.6 (15:40) 9 (00:00) 11.8 9.44 (14:20) 5.83 (15:00) 0 0 0 0 0
03-02-2021 11 (12:30) 6.6 (00:00) 8.8 7.78 (12:50) 4.72 (17:50) 2.4 0 0 0.8 1.6
02-02-2021 14.8 (16:20) 6.6 (00:00) 10.7 7.22 (01:40) 4.44 (21:40) 0.4 0.4 0 0 0
01-02-2021 9.5 (21:00) 5 (00:00) 7.3 14.17 (01:20) 5 (00:30) 13.2 9.6 1.6 1.8 0.2
31-01-2021 10.3 (13:50) 0.6 (00:00) 5.5 9.72 (12:10) 5.56 (09:50) 19.8 13 4.8 1.2 0.8

Gráficas

Temp. máximas Temp. mínimas Temp. medias Precipitaciones Rachas de viento máximas Velocidades máximas media en intervalos de 10 minutos

Datos horarios

Fecha y hora oficial Temperatura (ºC) Velocidad del viento (km/h) Dirección del viento Racha (km/h) Dirección de racha Precipitación (mm) Presión (hPa) Tendencia (hPa) Humedad (%)
2021-03-01 23:00:00 6.4 10 Norte 17 Nordeste 0 906.6 0.4 75
2021-03-01 22:00:00 7.1 9 Nordeste 17 Nordeste 0 906.4 0.7 72
2021-03-01 21:00:00 7.6 5 Este 20 Nordeste 0 906.5 1.4 70
2021-03-01 20:00:00 7.8 3 Este 13 Sur 0 906.2 1.5 70
2021-03-01 19:00:00 8.4 8 Sur 19 Noroeste 0 905.7 1.2 67
2021-03-01 18:00:00 9 9 Sudoeste 29 Sur 0 905.1 0.6 64
2021-03-01 17:00:00 11 14 Sur 27 Sur 0 904.7 -0.4 49
2021-03-01 16:00:00 12 14 Sur 30 Sur 0 904.5 -1 45
2021-03-01 15:00:00 11.5 12 Este 32 Sur 0 904.5 -- 43
2021-03-01 14:00:00 11.5 19 Sur 35 Sur 0 905.1 -- 41
2021-03-01 13:00:00 11.1 15 Sur 33 Sur 0 905.5 -- 46
2021-03-01 12:00:00 10.3 10 Sur 23 Sur 0 905.8 -- 51
2021-03-01 11:00:00 7 8 Nordeste 18 Sudeste 0 905.8 -- 65
2021-03-01 10:00:00 5.6 7 Este 16 Nordeste 0 906.6 -- 71
2021-03-01 09:00:00 4.3 5 Nordeste 12 Sudoeste 0 906.6 -- 74
2021-03-01 08:00:00 3.3 5 Norte 17 Norte 0 905.8 -- 71
2021-03-01 07:00:00 2.9 7 Norte 14 Oeste 0 905.3 -- 71
2021-03-01 06:00:00 3.9 6 Oeste 12 Norte 0 905 -- 65
2021-03-01 05:00:00 4.7 9 Nordeste 23 Norte 0 904.8 -- 60
2021-03-01 04:00:00 4.7 14 Nordeste 23 Nordeste 0 904.9 -- 64
2021-03-01 03:00:00 4.9 10 Norte 14 Norte 0 905.4 -- 66
2021-03-01 02:00:00 5.2 8 Norte 17 Norte 0 905.3 -- 69
2021-03-01 01:00:00 6.5 9 Este 25 Este 0 905.4 -- 66
2021-03-01 00:00:00 6.6 10 Sudeste 24 Sudeste 0 905.6 -- 68
2021-02-28 23:00:00 6.4 8 Sudeste 26 Sur 0 905.4 -- 69
2021-02-28 22:00:00 6 12 Sudeste 23 Sur 0 905.4 -- 72
2021-02-28 21:00:00 6.2 13 Sur 26 Sur 0 904.9 -- 72
2021-02-28 20:00:00 6.2 17 Sur 26 Sur 0 904.8 -- 75
2021-02-28 19:00:00 6.1 15 Sur 40 Nordeste 0 904.5 -- 74
2021-02-28 18:00:00 6.2 14 Este 43 Este 0.2 903.9 -- 73
2021-02-28 17:00:00 5.4 11 Este 28 Sudeste 0.2 904.3 -- 79
2021-02-28 16:00:00 5.6 12 Este 33 Nordeste 0.4 904.2 -- 78
2021-02-28 15:00:00 7.1 14 Este 33 Este 0.2 904.1 -- 72
2021-02-28 14:00:00 5.1 14 Este 35 Sudeste 0.6 904.7 -- 82
2021-02-28 13:00:00 4.7 3 Norte 35 Este 1.8 905 -- 83
2021-02-28 12:00:00 6.5 9 Este 26 Este 0 905 -- 79
2021-02-28 11:00:00 5.5 9 Sudeste 28 Sur 0.2 905 -- 79
2021-02-28 10:00:00 6.1 3 Norte 6 Sudoeste 0 904.6 -- 74
2021-02-28 09:00:00 5.8 2 Sudoeste 15 Nordeste 0 904.4 -- 70
2021-02-28 08:00:00 5.9 7 Nordeste 16 Nordeste 0 904.1 -- 66
2021-02-28 07:00:00 5.9 5 Norte 12 Nordeste 0 904.2 -- 66
2021-02-28 06:00:00 5.1 6 Norte 18 Norte 0 904.2 -- 66
2021-02-28 05:00:00 4.6 8 Nordeste 23 Norte 0 904.2 -- 67
2021-02-28 04:00:00 5.2 10 Nordeste 24 Nordeste 0 904.6 -- 62
2021-02-28 03:00:00 4.3 14 Nordeste 21 Nordeste 0 905.4 -- 66
2021-02-28 02:00:00 2.3 3 Nordeste 5 Nordeste 0 905.7 -- 67
2021-02-28 01:00:00 2.8 4 Norte 6 Nordeste 0 905.1 -- 65
2021-02-28 00:00:00 4.2 5 Norte 14 Norte 0 904.9 -- 56
2021-02-27 23:00:00 4.4 6 Norte 15 Norte 0 904.9 -- 60
2021-02-27 22:00:00 4 2 Oeste 9 Nordeste 0 904.6 -- 68
2021-02-27 21:00:00 5.4 4 Sudoeste 9 Sudoeste 0 904.1 -- 63
2021-02-27 20:00:00 7 5 Sur 14 Sudoeste 0 904.2 -- 55
2021-02-27 19:00:00 10.3 4 Sur 33 Norte 0 904.1 -- 37
2021-02-27 18:00:00 13.2 19 Norte 33 Nordeste 0 903.8 -- 22
2021-02-27 17:00:00 15.8 9 Sudoeste 27 Sudoeste 0 904.2 -- 34
2021-02-27 16:00:00 16.4 14 Sudoeste 25 Sudoeste 0 904.5 -- 40
2021-02-27 15:00:00 16.4 9 Sur -- -- -- 905.3 -- 40
2021-02-27 14:00:00 15.7 12 Sudoeste 22 Sudoeste 0 905.9 -- 43
2021-02-27 13:00:00 15.3 6 Sudeste 15 Sudeste 0 906.7 -- 44
2021-02-27 12:00:00 13.5 6 Sudeste 13 Sudeste 0 907.2 -- 48
2021-02-27 11:00:00 11.3 7 Sur 11 Sur 0 907.4 -- 58
2021-02-27 10:00:00 7.9 2 Nordeste 8 Nordeste 0 907.5 -- 64
2021-02-27 09:00:00 5.6 2 Nordeste 8 Nordeste 0 907.7 -- 70
2021-02-27 08:00:00 2.6 0 Calma 11 Oeste 0 907.6 -- 76
2021-02-27 07:00:00 2.7 4 Nordeste 8 Noroeste 0 907.8 -- 74
2021-02-27 06:00:00 3.2 0 Calma 8 Norte 0 908 -- 70
2021-02-27 05:00:00 3.3 2 Noroeste 8 Noroeste 0 908.3 -- 71
2021-02-27 04:00:00 3.7 4 Norte 7 Nordeste 0 908.6 -- 72
2021-02-27 03:00:00 4.5 2 Oeste 11 Norte 0 909.3 -- 68
2021-02-27 02:00:00 5.1 4 Norte 14 Norte 0 909.6 -- 64
2021-02-27 01:00:00 5.4 5 Norte 13 Norte 0 909.8 -- 65
2021-02-27 00:00:00 6.3 3 Norte 14 Nordeste 0 910.1 -- 59
2021-02-26 23:00:00 6.9 3 Nordeste 15 Norte 0 910.3 -- 65
2021-02-26 22:00:00 7.3 5 Norte 12 Norte 0 910.1 -- 72
2021-02-26 21:00:00 8.5 6 Norte 17 Norte 0 910.1 -- 66
2021-02-26 20:00:00 9.6 9 Norte 17 Nordeste 0 910.4 -- 65
2021-02-26 19:00:00 11.1 4 Nordeste 8 Noroeste 0 910.3 -- 60
2021-02-26 18:00:00 14.2 4 Sudoeste 17 Sudoeste 0 910.1 -- 44
2021-02-26 17:00:00 15.8 10 Sudoeste 21 Sudoeste 0 910 -- 39
2021-02-26 16:00:00 16.3 12 Sudoeste 22 Sudoeste 0 910.1 -- 37
2021-02-26 15:00:00 16.6 12 Sudoeste 21 Sudoeste 0 910.6 -- 36
2021-02-26 14:00:00 15.9 10 Sudoeste 22 Sudoeste 0 911 -- 38
2021-02-26 13:00:00 15.6 12 Sudoeste 21 Sudoeste 0 911.6 -- 37
2021-02-26 12:00:00 15.2 7 Sur 13 Sudeste 0 911.8 -- 40
2021-02-26 11:00:00 12.7 5 Sudeste 9 Sudeste 0 911.9 -- 43
2021-02-26 10:00:00 9 3 Nordeste 11 Nordeste 0 911.8 -- 55
2021-02-26 09:00:00 6.1 0 Calma 7 Norte 0 911.6 -- 62
2021-02-26 08:00:00 4.4 3 Norte 12 Norte 0 911.3 -- 61
2021-02-26 07:00:00 4.4 4 Norte 11 Norte 0 911.4 -- 63
2021-02-26 06:00:00 4.2 5 Nordeste 12 Norte 0 911.4 -- 67
2021-02-26 05:00:00 4.5 3 Norte 6 Norte 0 911.5 -- 71
2021-02-26 04:00:00 4.8 3 Norte 5 Nordeste 0 911.6 -- 72
2021-02-26 03:00:00 5.6 0 Calma 5 Nordeste 0 911.7 -- 67
2021-02-26 02:00:00 5.8 0 Calma 6 Nordeste 0 911.8 -- 65
2021-02-26 01:00:00 5.8 2 Norte 5 Nordeste 0 912.1 -- 66
2021-02-26 00:00:00 6.3 2 Sur 4 Norte 0 912.1 -- 64
2021-02-25 23:00:00 6.3 3 Oeste 8 Noroeste 0 911.9 -- 69
2021-02-25 22:00:00 6.6 4 Norte 13 Nordeste 0 911.7 -- 72
2021-02-25 21:00:00 7.6 6 Norte 14 Nordeste 0 911.5 -- 69
2021-02-25 20:00:00 8.6 9 Norte 15 Nordeste 0 911.1 -- 66
2021-02-25 19:00:00 10 5 Norte 8 Norte 0 910.7 -- 62
2021-02-25 18:00:00 12.5 4 Oeste 14 Sudoeste 0 910.2 -- 51
2021-02-25 17:00:00 14.3 7 Oeste 20 Sudoeste 0 909.7 -- 44
2021-02-25 16:00:00 16.1 11 Sudoeste 23 Sudoeste 0 909.7 -- 37
2021-02-25 15:00:00 16 12 Sur 22 Sur 0 909.9 -- 30
2021-02-25 14:00:00 15.6 10 Sudoeste 19 Sur 0 910.3 -- 33
2021-02-25 13:00:00 13.8 10 Sur 18 Sur 0 911.2 -- 41
2021-02-25 12:00:00 12.7 8 Sudeste 13 Sur 0 911.4 -- 47
2021-02-25 11:00:00 11.3 6 Sudeste 10 Sudeste 0 911.3 -- 52
2021-02-25 10:00:00 8.1 3 Nordeste 9 Sudoeste 0 911 -- 60
2021-02-25 09:00:00 5.6 4 Nordeste 13 Nordeste 0 910.1 -- 52
2021-02-25 08:00:00 3.7 3 Norte 17 Norte 0 910.3 -- 66
2021-02-25 07:00:00 4.8 15 Norte 21 Norte 0 910 -- 54
2021-02-25 06:00:00 4.7 4 Norte 22 Nordeste 0 910 -- 63
2021-02-25 05:00:00 5.2 18 Norte 25 Norte 0 910 -- 66
2021-02-25 04:00:00 5.4 4 Noroeste 20 Nordeste 0 910.5 -- 68
2021-02-25 03:00:00 5.9 10 Norte 17 Norte 0 910.7 -- 74
2021-02-25 02:00:00 6.3 5 Norte 12 Norte 0 910.8 -- 74
2021-02-25 01:00:00 7 5 Noroeste 15 Norte 0 911.2 -- 71
2021-02-25 00:00:00 8.1 8 Nordeste 20 Nordeste 0 911.5 -- 63
2021-02-24 23:00:00 8.6 9 Nordeste 19 Norte 0 911.6 -- 58
2021-02-24 22:00:00 8.7 9 Nordeste 21 Norte 0 911.8 -- 57
2021-02-24 21:00:00 8.8 17 Nordeste 22 Norte 0 911.8 -- 64
2021-02-24 20:00:00 10.8 9 Nordeste 20 Este 0 911.8 -- 53
2021-02-24 19:00:00 12.1 8 Sudeste 24 Sur 0 911.4 -- 48
2021-02-24 18:00:00 13.4 12 Sur 37 Sur 0 911.6 -- 44
2021-02-24 17:00:00 14.8 22 Sur 39 Sur 0 911.7 -- 38
2021-02-24 16:00:00 15.4 24 Sur 41 Sur 0 912.2 -- 36
2021-02-24 15:00:00 15.6 17 Sudeste 41 Sudeste 0 912.6 -- 39
2021-02-24 14:00:00 14.9 21 Sudeste 53 Sur 0 913.3 -- 41
2021-02-24 13:00:00 15.3 28 Sur 49 Sur 0 913.8 -- 42
2021-02-24 12:00:00 14.5 31 Sur 50 Sur 0 914.2 -- 43
2021-02-24 11:00:00 13.9 15 Este 34 Este 0 914.4 -- 48
2021-02-24 10:00:00 12.8 16 Sudeste 29 Sudeste 0 914.4 0.1 49
2021-02-24 09:00:00 10.5 8 Sudeste -- -- 0 914.3 -- 57
2021-02-24 08:00:00 9.5 5 Sur 22 Sudeste 0 914.2 -0.2 60
2021-02-24 07:00:00 9.6 5 Norte 17 Nordeste 0 914.3 -- 59
2021-02-24 06:00:00 7.9 4 Norte 12 Sudoeste 0 914.5 -0.5 67
2021-02-24 05:00:00 8.8 5 Oeste 15 Sudoeste 0 914.4 -- 64
2021-02-24 04:00:00 8.5 6 Sudoeste 22 Sur 0 914.5 -- 66
2021-02-24 03:00:00 8.4 6 Sudoeste 13 Nordeste 0 915 -- 67
2021-02-24 02:00:00 7.7 5 Noroeste 14 Norte 0 915.2 -0.3 70
2021-02-24 01:00:00 7.8 3 Oeste 14 Nordeste 0 915.5 -- 68
2021-02-24 00:00:00 8.5 5 Nordeste 13 Nordeste 0 915.5 -- 65
2021-02-23 23:00:00 8.7 5 Nordeste 19 Nordeste 0 915.5 -- 64
2021-02-23 22:00:00 9.1 6 Nordeste 22 Nordeste 0 915.4 -- 63
2021-02-23 21:00:00 9.1 7 Nordeste 17 Nordeste 0 915.1 0.9 63
2021-02-23 20:00:00 9.6 5 Sur 18 Nordeste 0 915 -- 62
2021-02-23 19:00:00 10.2 10 Este 29 Sudeste 0 914.5 -- 62
2021-02-23 18:00:00 11 13 Sudeste 42 Sudeste 0 914.2 -- 58
2021-02-23 17:00:00 11.7 16 Sudeste 43 Sur 0 914.1 -- 56
2021-02-23 16:00:00 11.7 25 Sur 51 Sur 0 914.2 -- 57
2021-02-23 15:00:00 11.6 25 Sur 48 Sur 0 914.1 -- 57
2021-02-23 14:00:00 11.5 26 Sur 53 Sur 0 914 -- 63
2021-02-23 13:00:00 10.2 24 Sur 41 Sur 0 914.4 -- 72
2021-02-23 12:00:00 9.5 17 Sur 42 Sur 0 914.1 -- 75
2021-02-23 11:00:00 7.9 14 Sur 30 Sudeste 0 913.7 -- 80
2021-02-23 10:00:00 7.5 15 Sur 29 Sur 0 913 -- 84
2021-02-23 09:00:00 6.9 8 Sur 21 Sudeste 0 912.1 -- 85
2021-02-23 08:00:00 6.5 4 Este 10 Nordeste 0 911.4 -- 84
2021-02-23 07:00:00 5.7 3 Sudoeste 9 Nordeste 0.2 911 -- 87
2021-02-23 06:00:00 5.5 3 Noroeste 11 Oeste 0 910.4 -- 85
2021-02-23 05:00:00 4 3 Sudoeste 12 Norte 0 909.5 -- 89
2021-02-23 04:00:00 4.3 3 Sudoeste 12 Norte 0 909.1 -- 88
2021-02-23 03:00:00 4.4 12 Norte 18 Norte 0 908.6 -- 89
2021-02-23 02:00:00 4.6 4 Norte 13 Norte 0 908.7 -- 92
2021-02-23 01:00:00 4.8 3 Sudeste 12 Norte 0 908 -- 92
2021-02-23 00:00:00 4.8 3 Este 6 Sudoeste 0 907.6 -- 93
2021-02-22 23:00:00 5 2 Sur 6 Noroeste 0 906.9 -- 93
2021-02-22 22:00:00 5.2 3 Norte 8 Sur 0 906 -- 93
2021-02-22 21:00:00 5.5 0 Calma 8 Sudoeste 0.6 905.5 -- 92
2021-02-22 20:00:00 5.5 4 Nordeste 11 Oeste 0.2 904.6 -- 92
2021-02-22 19:00:00 6 5 Oeste 10 Sudoeste 0.4 903.4 -- 89
2021-02-22 18:00:00 6.3 2 Sudoeste 10 Sur 0.8 902 -- 88
2021-02-22 17:00:00 6.6 3 Sur 14 Norte 0.6 901.3 -- 91
2021-02-22 16:00:00 6.1 11 Norte 19 Nordeste 1.8 900.5 -- 86
2021-02-22 15:00:00 6.2 4 Sur 6 Sur 2.8 900 -- 93
2021-02-22 14:00:00 5.9 5 Sur 11 Sudeste 2.4 899.4 -- 93
2021-02-22 13:00:00 6.1 6 Sudoeste 12 Sudoeste 3.2 899 -- 93
2021-02-22 12:00:00 5.9 3 Sur 12 Sur 0.8 898.6 -- 92
2021-02-22 11:00:00 6.3 8 Sudoeste 13 Sudoeste 0.4 897.6 -- 91
2021-02-22 10:00:00 6 9 Norte 18 Sur 7.6 896.9 -- 90
2021-02-22 09:00:00 6.3 17 Sur 46 Sur 6.2 896.3 -- 87
2021-02-22 08:00:00 8.2 18 Este 35 Sudeste 1.6 894.1 -- 80
2021-02-22 07:00:00 7.3 10 Este 41 Sudeste 4 893.2 1.9 85
2021-02-22 06:00:00 8.7 11 Este 36 Nordeste 0.6 892.3 -- 75
2021-02-22 05:00:00 9.6 19 Este 48 Este 0 891.7 -- 67
2021-02-22 04:00:00 8.9 24 Nordeste 48 Nordeste 0.6 891.3 -- 73
2021-02-22 03:00:00 7.4 7 Nordeste 35 Este 1.2 892.7 -- 82
2021-02-22 02:00:00 7.9 13 Este 34 Nordeste 1 893.1 -- 78
2021-02-22 01:00:00 8.2 18 Este 44 Nordeste 0.6 892.8 -- 73
2021-02-22 00:00:00 8.3 24 Este 49 Nordeste 0.6 893.1 -- 74
2021-02-21 23:00:00 8.6 21 Este 46 Sur 1 893.4 -- 74
2021-02-21 22:00:00 11.6 17 Sudeste 46 Sur 0 892.8 1 45
2021-02-21 21:00:00 11.9 18 Sur 42 Este 0 892.5 -- 42
2021-02-21 20:00:00 12.1 27 Este 56 Sur 0 892.1 -- 42
2021-02-21 19:00:00 12 22 Sudeste 49 Sur 0 891.8 -- 41
2021-02-21 18:00:00 12.3 19 Sudeste 47 Sur 0 891.5 -- 38
2021-02-21 17:00:00 12.8 28 Sur 49 Sur 0 891.1 -- 36
2021-02-21 16:00:00 13.9 24 Sur 49 Sudeste 0 891.2 -- 34
2021-02-21 15:00:00 13.6 17 Sudeste 62 Sur 0 891.4 -- 33
2021-02-21 14:00:00 14.2 27 Sur 55 Sur 0 891.8 -- 29
2021-02-21 13:00:00 14.3 21 Sudeste 63 Sur 0 892.4 -- 28
2021-02-21 12:00:00 14 33 Sur 63 Sudeste 0 893.5 -- 24
2021-02-21 11:00:00 13.9 22 Sur 59 Sudeste 0 893.8 -- 24
2021-02-21 10:00:00 12.3 19 Sudeste 56 Este 0 893.9 -- 27
2021-02-21 09:00:00 10.5 17 Sudeste 50 Sudeste 0 894.5 -- 31
2021-02-21 08:00:00 10.1 19 Sudeste 51 Este 0 894.7 -- 31
2021-02-21 07:00:00 10.1 18 Sudeste 48 Sudeste 0 894.9 -- 32
2021-02-21 06:00:00 10.3 14 Este 40 Sur 0 895.3 -- 31
2021-02-21 05:00:00 11 16 Sudeste 42 Nordeste 0 895.4 -- 28
2021-02-21 04:00:00 11.4 15 Sudeste 43 Sudeste 0 895.8 -- 25
2021-02-21 03:00:00 11.7 15 Sudeste 45 Nordeste 0 896.2 -- 25
2021-02-21 02:00:00 12 21 Sudeste 54 Sudeste 0 896.7 -- 25
2021-02-21 01:00:00 12 18 Este 48 Sur 0 897.2 -- 25
2021-02-21 00:00:00 12.3 21 Sudeste 59 Sudeste 0 897.5 -- 24
2021-02-20 23:00:00 12.8 31 Sudeste 54 Sudeste 0 897.5 -- 24
2021-02-20 22:00:00 12.9 21 Sudeste 50 Sudeste 0 897.6 -- 26
2021-02-20 21:00:00 13 19 Sudeste 53 Este 0 898.1 -- 26
2021-02-20 20:00:00 13.3 22 Este 57 Sudeste 0 897.7 -- 28
2021-02-20 19:00:00 13.9 21 Sudeste 36 Sudeste 0 897 -- 27
2021-02-20 18:00:00 14.9 19 Sudeste 42 Sudeste 0 896.6 -- 26
2021-02-20 17:00:00 16.3 25 Sur 54 Sur 0 896.6 -- 25
2021-02-20 16:00:00 17 18 Sur 52 Sudeste 0 897.1 -- 23
2021-02-20 15:00:00 16.6 21 Este 45 Este 0 898 -- 25
2021-02-20 14:00:00 17.8 16 Sudeste 40 Sudeste 0 898.7 -- 22
2021-02-20 13:00:00 16.4 18 Sudeste 43 Este 0 899.3 -- 25
2021-02-20 12:00:00 15.1 21 Sudeste 50 Sudeste 0 899.7 -- 27
2021-02-20 11:00:00 14.9 17 Sudeste 39 Sudeste 0 899.9 -- 28
2021-02-20 10:00:00 14.2 19 Sudeste 38 Sur 0 899.7 -- 29
2021-02-20 09:00:00 12.7 16 Sudeste 33 Sudeste 0 899.7 0.2 30
2021-02-20 08:00:00 11.9 16 Este 33 Nordeste 0 899.2 -- 32
2021-02-20 07:00:00 11.1 9 Sudeste 30 Sudeste 0 899.4 -- 34
2021-02-20 06:00:00 11.1 19 Sudeste 37 Sudeste 0 899.5 -0.8 34
2021-02-20 05:00:00 10.6 17 Sudeste 27 Sudeste 0 899.5 -- 36
2021-02-20 04:00:00 10 3 Oeste 13 Norte 0 899.7 -0.9 37
2021-02-20 03:00:00 9.4 4 Sudoeste 16 Sudoeste 0 900.3 -- 42
2021-02-20 02:00:00 9.8 6 Sur 14 Sudeste 0 900.3 -- 41
2021-02-20 01:00:00 9.6 3 Noroeste 10 Sudoeste 0 900.6 -- 45
2021-02-20 00:00:00 9.2 3 Oeste 12 Oeste 0 901 -- 46
2021-02-19 23:00:00 8.8 5 Oeste 13 Sudoeste 0 901.1 0.2 47
2021-02-19 22:00:00 9 5 Sudoeste 16 Nordeste 0 901 -- 45
2021-02-19 21:00:00 10.3 11 Norte 20 Norte 0 900.8 -- 41
2021-02-19 20:00:00 9.4 12 Norte 19 Norte 0 900.9 -- 46
2021-02-19 19:00:00 10.7 11 Norte 17 Norte 0 900.6 -- 43
2021-02-19 18:00:00 12.2 12 Sudeste 27 Sur 0 900.5 -- 37
2021-02-19 17:00:00 13.9 14 Sur 30 Sur 0 900.3 -1 36
2021-02-19 16:00:00 14.7 17 Sur 34 Sur 0 900.2 -- 33
2021-02-19 15:00:00 14.7 15 Sur 36 Sur 0 900.6 -- 36
2021-02-19 14:00:00 14.1 18 Sur 33 Sur 0 901.3 -- 37
2021-02-19 13:00:00 13.9 17 Sur 33 Sur 0 902 -- 36
2021-02-19 12:00:00 13.4 22 Sur 36 Sur 0 902.3 -- 36
2021-02-19 11:00:00 13.8 6 Sur 19 Sur 0 902.1 -- 41
2021-02-19 10:00:00 11 5 Sudeste 11 Nordeste 0 902.2 -- 48
2021-02-19 09:00:00 8.1 5 Sudoeste 17 Norte 0 902.1 -- 56
2021-02-19 08:00:00 6.9 11 Norte 18 Norte 0 901.5 -- 60
2021-02-19 07:00:00 6.1 10 Nordeste 15 Nordeste 0 901.4 -- 63
2021-02-19 06:00:00 5.9 3 Noroeste 19 Nordeste 0 901.1 -- 63
2021-02-19 05:00:00 6.2 9 Norte 19 Norte 0 901 -- 62
2021-02-19 04:00:00 6.4 11 Norte 21 Nordeste 0 901.3 -- 60
2021-02-19 03:00:00 6.6 13 Norte 21 Nordeste 0 901.5 -- 62
2021-02-19 02:00:00 7.3 9 Norte 17 Nordeste 0 901.4 -- 59
2021-02-19 01:00:00 7.5 8 Nordeste 18 Nordeste 0 901.5 -- 58
2021-02-19 00:00:00 8 9 Norte 17 Nordeste 0 901.6 -- 57
2021-02-18 23:00:00 8 0 Calma 8 Norte 0 901.7 -- 55
2021-02-18 22:00:00 9.2 3 Oeste 9 Nordeste 0 901.3 -- 49
2021-02-18 21:00:00 9 4 Noroeste 17 Norte 0 900.8 -- 51
2021-02-18 20:00:00 9.3 8 Nordeste 15 Nordeste 0 900.4 -- 50
2021-02-18 19:00:00 9.5 4 Nordeste 11 Sudoeste 0 900 -- 50
2021-02-18 18:00:00 12.5 7 Sudoeste 12 Sudoeste 0 899.8 -- 40
2021-02-18 17:00:00 13.6 9 Sur 26 Sur 0 899.6 -- 34
2021-02-18 16:00:00 12.8 14 Sur 33 Sudoeste 0 899.6 -- 35
2021-02-18 15:00:00 14.7 13 Sur 26 Sur 0 899.5 -- 31
2021-02-18 14:00:00 13.2 15 Sur 29 Sur 0 900.1 -- 36
2021-02-18 13:00:00 13.2 13 Sudeste 30 Sur 0 900.7 -- 38
2021-02-18 12:00:00 13.1 15 Sur 29 Sur 0 900.8 -- 38
2021-02-18 11:00:00 12.8 10 Sur 28 Sudeste 0 900.6 -- 38
2021-02-18 10:00:00 12.2 13 Sudeste 30 Sur 0 900.2 -- 38
2021-02-18 09:00:00 10.8 6 Sudoeste 15 Oeste 0 900.1 -- 45
2021-02-18 08:00:00 9.2 5 Sudoeste 17 Sudoeste 0 899.7 -- 50
2021-02-18 07:00:00 8.9 5 Este 15 Sudoeste 0 899.9 -- 53
2021-02-18 06:00:00 9 9 Oeste 17 Sudoeste 0 900.2 -- 54
2021-02-18 05:00:00 9.3 5 Norte 10 Nordeste 0 900.4 -- 52
2021-02-18 04:00:00 8.8 3 Noroeste 13 Norte 0 900.7 -- 58
2021-02-18 03:00:00 9.1 5 Nordeste 11 Sur 0 901.2 -- 60
2021-02-18 02:00:00 9.8 3 Sur 13 Sudoeste 0 901.4 -- 58
2021-02-18 01:00:00 9.3 4 Oeste 13 Este 0 901.8 -- 61
2021-02-18 00:00:00 8.8 5 Este 22 Norte 0 902.3 -- 65
2021-02-17 23:00:00 9 12 Norte 21 Norte 0 902.4 -- 65
2021-02-17 22:00:00 8.9 10 Norte 18 Norte 0 902.3 -- 67
2021-02-17 21:00:00 9.3 11 Nordeste 18 Nordeste 0 902.3 -- 66
2021-02-17 20:00:00 9.6 9 Nordeste 18 Norte 0 902.6 -- 68
2021-02-17 19:00:00 10.3 10 Norte 16 Norte 0 902.9 -- 67
2021-02-17 18:00:00 11.3 4 Sudoeste 13 Sur 0 903 -- 61
2021-02-17 17:00:00 12.1 4 Sur 20 Sur 0 903 -- 56
2021-02-17 16:00:00 12.8 9 Sudoeste 21 Sudoeste 0 903.4 -- 53
2021-02-17 15:00:00 12.8 9 Sudeste 21 Este 0 903.5 -- 52
2021-02-17 14:00:00 12.4 6 Sur 18 Sur 0 904.4 -- 51
2021-02-17 13:00:00 12.6 9 Sur 17 Sudeste 0 905.1 -- 50
2021-02-17 12:00:00 11.7 9 Sur 17 Sudeste 0 905.5 -- 57
2021-02-17 11:00:00 11.1 9 Sur 17 Sur 0 905.8 -- 58
2021-02-17 10:00:00 10.8 4 Sur 8 Sur 0 905.6 -- 58
2021-02-17 09:00:00 7.4 6 Nordeste 15 Norte 0 905.3 -- 72
2021-02-17 08:00:00 6.6 8 Norte 17 Norte 0 904.9 -- 74
2021-02-17 07:00:00 6 5 Norte 18 Norte 0 905.1 -- 75
2021-02-17 06:00:00 6 7 Norte 17 Norte 0 905.3 -- 77
2021-02-17 05:00:00 5.7 4 Norte 14 Nordeste 0 905.3 -- 79
2021-02-17 04:00:00 6 4 Norte 15 Norte 0 905.6 -- 79
2021-02-17 03:00:00 6.7 6 Norte 15 Norte 0 906 -- 79
2021-02-17 02:00:00 6.5 3 Norte 10 Noroeste 0 906.2 -- 83
2021-02-17 01:00:00 8.2 6 Noroeste 15 Noroeste 0 906.3 -- 77
2021-02-17 00:00:00 7.8 5 Noroeste 13 Norte 0 906.1 -- 69
2021-02-16 23:00:00 8.1 4 Norte 12 Norte 0 906.2 -- 67
2021-02-16 22:00:00 8.2 6 Norte 19 Nordeste 0 906.3 -- 66
2021-02-16 21:00:00 8.4 12 Norte 17 Norte 0 906.1 -- 65
2021-02-16 20:00:00 9.6 2 Norte 15 Nordeste 0 906.3 -- 58
2021-02-16 19:00:00 10.3 12 Norte 17 Norte 0 905.7 -- 58
2021-02-16 18:00:00 11.7 3 Norte 7 Noroeste 0 905.7 -- 59
2021-02-16 17:00:00 12.5 6 Oeste 14 Sudoeste 0 905.9 -- 48
2021-02-16 16:00:00 13.5 3 Sudoeste 12 Oeste 0 906.1 -- 50
2021-02-16 15:00:00 14.3 3 Sur 16 Sur 0 906.3 -- 52
2021-02-16 14:00:00 14.4 5 Sudeste 9 Sur 0 906.8 -- 49
2021-02-16 13:00:00 13.5 5 Sur 14 Sur 0 907.4 -- 52
2021-02-16 12:00:00 12 2 Este 8 Sur 0 907.8 -- 54
2021-02-16 11:00:00 10.6 3 Este 7 Nordeste 0 908.3 -- 56
2021-02-16 10:00:00 7.8 7 Nordeste 12 Nordeste 0 908.2 -- 60
2021-02-16 09:00:00 5.6 4 Noroeste 21 Norte 0 907.7 -- 66
2021-02-16 08:00:00 5.1 17 Norte 23 Norte 0 907.4 -- 64
2021-02-16 07:00:00 4.5 6 Nordeste 17 Norte 0 907.8 -- 68
2021-02-16 06:00:00 3.6 4 Noroeste 13 Nordeste 0 908.1 -- 73
2021-02-16 05:00:00 4 3 Noroeste 18 Nordeste 0 908.8 -- 72
2021-02-16 04:00:00 3.4 4 Norte 10 Norte 0 909.4 -- 75
2021-02-16 03:00:00 4.3 4 Norte 16 Norte 0 910 -- 70
2021-02-16 02:00:00 5.2 3 Nordeste 19 Norte 0 910.3 -- 65
2021-02-16 01:00:00 5.2 8 Norte 14 Norte 0 911 -- 64
2021-02-16 00:00:00 5.6 10 Norte 19 Norte 0 911.2 -- 62
2021-02-15 23:00:00 5.9 10 Norte 18 Norte 0 911.5 -- 64
2021-02-15 22:00:00 6 9 Norte 20 Norte 0 911.6 -- 72
2021-02-15 21:00:00 6.1 12 Norte 22 Nordeste 0 911.6 -- 76
2021-02-15 20:00:00 6.7 12 Norte 18 Norte 0 911.5 -- 78
2021-02-15 19:00:00 7.7 7 Norte 11 Sur 0 911.4 -- 77
2021-02-15 18:00:00 9.6 5 Sur 16 Sur 0 911.4 -- 67
2021-02-15 17:00:00 10.9 10 Sur 19 Sur 0 911.5 -- 62
2021-02-15 16:00:00 13.1 9 Sur 21 Sur 0 911.5 -- 53
2021-02-15 15:00:00 13.7 13 Sur 21 Sur 0 911.8 -- 51
2021-02-15 14:00:00 11.5 9 Sur 18 Sur 0 912.5 -- 56
2021-02-15 13:00:00 11.4 12 Sur 22 Sur 0 913.1 -- 57
2021-02-15 12:00:00 10.1 10 Sur 19 Sur 0 913.7 -- 61
2021-02-15 11:00:00 9.9 11 Sur 20 Sur 0 913.5 -- 59
2021-02-15 10:00:00 7.1 5 Nordeste 17 Nordeste 0 913.3 -- 71
2021-02-15 09:00:00 4.6 9 Nordeste 18 Nordeste 0 913.1 -- 78
2021-02-15 08:00:00 3.8 14 Norte 20 Norte 0 912.4 -- 81
2021-02-15 07:00:00 4.6 6 Nordeste 10 Nordeste 0 912.4 -- 79
2021-02-15 06:00:00 4.8 2 Norte 8 Norte 0 912.5 -- 79
2021-02-15 05:00:00 5 4 Nordeste 17 Nordeste 0 912.6 -- 75
2021-02-15 04:00:00 4.6 9 Norte 13 Nordeste 0 912.9 -- 78
2021-02-15 03:00:00 4.2 8 Nordeste 17 Norte 0 913.3 -- 80
2021-02-15 02:00:00 4 10 Nordeste 14 Nordeste 0 913.4 -- 84
2021-02-15 01:00:00 4.3 6 Norte 15 Nordeste 0 913.4 -- 82
2021-02-15 00:00:00 4.2 2 Noroeste 13 Nordeste 0 913.1 -- 83
2021-02-14 23:00:00 4.3 5 Nordeste 15 Norte 0 913 -- 82
2021-02-14 22:00:00 4.5 7 Norte 14 Nordeste 0 912.9 -- 80
2021-02-14 21:00:00 4.9 5 Sudeste 15 Nordeste 0 912.6 -- 79
2021-02-14 20:00:00 6.1 8 Sudeste 19 Sudeste 0 912.7 -- 75
2021-02-14 19:00:00 7.2 12 Sudeste 19 Sudeste 0 912.1 1 69
2021-02-14 18:00:00 8.4 13 Sudeste 23 Sudeste 0 911.5 0.4 64
2021-02-14 17:00:00 9.8 14 Sur 32 Sur 0 911.4 -- 58
2021-02-14 16:00:00 11.2 18 Sur 31 Sur 0 911.1 -- 54
2021-02-14 15:00:00 11.5 19 Sur 30 Sur 0 911.1 -- 51
2021-02-14 14:00:00 11.4 18 Sur 30 Sur 0 911.2 -- 52
2021-02-14 13:00:00 10.9 19 Sur 31 Sur 0 911.7 -- 53
2021-02-14 12:00:00 10.5 16 Sur 29 Sur 0 911.7 -- 55
2021-02-14 11:00:00 9.1 8 Sur 17 Sur 0 911.5 -- 56
2021-02-14 10:00:00 5.5 6 Nordeste 15 Nordeste 0 911 -- 63
2021-02-14 09:00:00 3.9 7 Nordeste 10 Nordeste 0 910.5 -- 61
2021-02-14 08:00:00 -- -- -- -- -- -- -- -- --
2021-02-14 07:00:00 -- -- -- -- -- -- -- -- --
2021-02-14 06:00:00 -- -- -- -- -- -- -- -- --
2021-02-14 05:00:00 -- -- -- -- -- -- -- -- --
2021-02-14 04:00:00 -- -- -- -- -- -- -- -- --
2021-02-14 03:00:00 -- -- -- -- -- -- -- -- --
2021-02-14 02:00:00 -- -- -- -- -- -- -- -- --
2021-02-14 01:00:00 -- -- -- -- -- -- -- -- --
2021-02-14 00:00:00 -- -- -- -- -- -- -- -- --
2021-02-13 23:00:00 -- -- -- -- -- -- -- -- --
2021-02-13 22:00:00 -- -- -- -- -- -- -- -- --
2021-02-13 21:00:00 -- -- -- -- -- -- -- -- --
2021-02-13 20:00:00 -- -- -- -- -- -- -- -- --
2021-02-13 19:00:00 -- -- -- -- -- -- -- -- --
2021-02-13 18:00:00 -- -- -- -- -- -- -- -- --
2021-02-13 17:00:00 -- -- -- -- -- -- -- -- --
2021-02-13 16:00:00 -- -- -- -- -- -- -- -- --
2021-02-13 15:00:00 -- -- -- -- -- -- -- -- --
2021-02-13 14:00:00 -- -- -- -- -- -- -- -- --
2021-02-13 13:00:00 -- -- -- -- -- -- -- -- --
2021-02-13 08:00:00 -- -- -- -- -- -- -- -- --
2021-02-13 07:00:00 -- -- -- -- -- -- -- -- --
2021-02-13 06:00:00 -- -- -- -- -- -- -- -- --
2021-02-13 05:00:00 -- -- -- -- -- -- -- -- --
2021-02-13 04:00:00 -- -- -- -- -- -- -- -- --
2021-02-13 03:00:00 -- -- -- -- -- -- -- -- --
2021-02-13 02:00:00 -- -- -- -- -- -- -- -- --
2021-02-13 01:00:00 -- -- -- -- -- -- -- -- --
2021-02-13 00:00:00 -- -- -- -- -- -- -- -- --
2021-02-12 23:00:00 -- -- -- -- -- -- -- -- --
2021-02-12 22:00:00 -- -- -- -- -- -- -- -- --
2021-02-12 21:00:00 -- -- -- -- -- -- -- -- --
2021-02-12 20:00:00 -- -- -- -- -- -- -- -- --
2021-02-12 19:00:00 -- -- -- -- -- -- -- -- --
2021-02-12 18:00:00 -- -- -- -- -- -- -- -- --
2021-02-12 17:00:00 -- -- -- -- -- -- -- -- --
2021-02-12 16:00:00 -- -- -- -- -- -- -- -- --
2021-02-12 15:00:00 -- -- -- -- -- -- -- -- --
2021-02-12 14:00:00 -- -- -- -- -- -- -- -- --
2021-02-12 13:00:00 -- -- -- -- -- -- -- -- --
2021-02-12 12:00:00 -- -- -- -- -- -- -- -- --
2021-02-12 11:00:00 -- -- -- -- -- -- -- -- --
2021-02-12 10:00:00 -- -- -- -- -- -- -- -- --
2021-02-12 09:00:00 -- -- -- -- -- -- -- -- --
2021-02-12 08:00:00 -- -- -- -- -- -- -- -- --
2021-02-12 07:00:00 -- -- -- -- -- -- -- -- --
2021-02-12 06:00:00 -- -- -- -- -- -- -- -- --
2021-02-12 05:00:00 -- -- -- -- -- -- -- -- --
2021-02-12 04:00:00 -- -- -- -- -- -- -- -- --
2021-02-12 03:00:00 -- -- -- -- -- -- -- -- --
2021-02-12 02:00:00 -- -- -- -- -- -- -- -- --
2021-02-12 01:00:00 -- -- -- -- -- -- -- -- --
2021-02-12 00:00:00 -- -- -- -- -- -- -- -- --
2021-02-11 23:00:00 -- -- -- -- -- -- -- -- --
2021-02-11 22:00:00 -- -- -- -- -- -- -- -- --
2021-02-11 21:00:00 -- -- -- -- -- -- -- -- --
2021-02-11 20:00:00 -- -- -- -- -- -- -- -- --
2021-02-11 19:00:00 -- -- -- -- -- -- -- -- --
2021-02-11 18:00:00 -- -- -- -- -- -- -- -- --
2021-02-11 17:00:00 -- -- -- -- -- -- -- -- --
2021-02-11 16:00:00 -- -- -- -- -- -- -- -- --
2021-02-11 15:00:00 -- -- -- -- -- -- -- -- --
2021-02-11 14:00:00 -- -- -- -- -- -- -- -- --
2021-02-11 13:00:00 -- -- -- -- -- -- -- -- --
2021-02-11 12:00:00 -- -- -- -- -- -- -- -- --
2021-02-11 11:00:00 -- -- -- -- -- -- -- -- --
2021-02-11 10:00:00 -- -- -- -- -- -- -- -- --
2021-02-11 09:00:00 -- -- -- -- -- -- -- -- --
2021-02-11 08:00:00 -- -- -- -- -- -- -- -- --
2021-02-11 07:00:00 -- -- -- -- -- -- -- -- --
2021-02-11 06:00:00 -- -- -- -- -- -- -- -- --
2021-02-11 05:00:00 -- -- -- -- -- -- -- -- --
2021-02-11 04:00:00 -- -- -- -- -- -- -- -- --
2021-02-11 03:00:00 -- -- -- -- -- -- -- -- --
2021-02-11 02:00:00 -- -- -- -- -- -- -- -- --
2021-02-11 01:00:00 -- -- -- -- -- -- -- -- --
2021-02-11 00:00:00 -- -- -- -- -- -- -- -- --
2021-02-10 23:00:00 -- -- -- -- -- -- -- -- --
2021-02-10 22:00:00 -- -- -- -- -- -- -- -- --
2021-02-10 21:00:00 -- -- -- -- -- -- -- -- --
2021-02-10 20:00:00 -- -- -- -- -- -- -- -- --
2021-02-10 19:00:00 -- -- -- -- -- -- -- -- --
2021-02-10 18:00:00 -- -- -- -- -- -- -- -- --
2021-02-10 17:00:00 -- -- -- -- -- -- -- -- --
2021-02-10 16:00:00 -- -- -- -- -- -- -- -- --
2021-02-10 15:00:00 -- -- -- -- -- -- -- -- --
2021-02-10 14:00:00 -- -- -- -- -- -- -- -- --
2021-02-10 13:00:00 -- -- -- -- -- -- -- -- --
2021-02-10 12:00:00 -- -- -- -- -- -- -- -- --
2021-02-10 11:00:00 -- -- -- -- -- -- -- -- --
2021-02-10 10:00:00 -- -- -- -- -- -- -- -- --
2021-02-10 09:00:00 -- -- -- -- -- -- -- -- --
2021-02-10 08:00:00 -- -- -- -- -- -- -- -- --
2021-02-10 07:00:00 -- -- -- -- -- -- -- -- --
2021-02-10 06:00:00 -- -- -- -- -- -- -- -- --
2021-02-10 05:00:00 -- -- -- -- -- -- -- -- --
2021-02-10 04:00:00 -- -- -- -- -- -- -- -- --
2021-02-10 03:00:00 -- -- -- -- -- -- -- -- --
2021-02-10 02:00:00 -- -- -- -- -- -- -- -- --
2021-02-10 01:00:00 -- -- -- -- -- -- -- -- --
2021-02-10 00:00:00 -- -- -- -- -- -- -- -- --
2021-02-09 23:00:00 -- -- -- -- -- -- -- -- --
2021-02-09 22:00:00 -- -- -- -- -- -- -- -- --
2021-02-09 21:00:00 -- -- -- -- -- -- -- -- --
2021-02-09 20:00:00 -- -- -- -- -- -- -- -- --
2021-02-09 19:00:00 -- -- -- -- -- -- -- -- --
2021-02-09 18:00:00 -- -- -- -- -- -- -- -- --
2021-02-09 17:00:00 -- -- -- -- -- -- -- -- --
2021-02-09 16:00:00 -- -- -- -- -- -- -- -- --
2021-02-09 15:00:00 -- -- -- -- -- -- -- -- --
2021-02-09 14:00:00 -- -- -- -- -- -- -- -- --
2021-02-09 13:00:00 -- -- -- -- -- -- -- -- --
2021-02-09 12:00:00 -- -- -- -- -- -- -- -- --
2021-02-09 11:00:00 -- -- -- -- -- -- -- -- --
2021-02-09 10:00:00 -- -- -- -- -- -- -- -- --
2021-02-09 09:00:00 -- -- -- -- -- -- -- -- --
2021-02-09 08:00:00 -- -- -- -- -- -- -- -- --
2021-02-09 07:00:00 -- -- -- -- -- -- -- -- --
2021-02-09 06:00:00 -- -- -- -- -- -- -- -- --
2021-02-09 05:00:00 -- -- -- -- -- -- -- -- --
2021-02-09 04:00:00 -- -- -- -- -- -- -- -- --
2021-02-09 03:00:00 -- -- -- -- -- -- -- -- --
2021-02-09 02:00:00 -- -- -- -- -- -- -- -- --
2021-02-09 01:00:00 -- -- -- -- -- -- -- -- --
2021-02-09 00:00:00 -- -- -- -- -- -- -- -- --
2021-02-08 23:00:00 -- -- -- -- -- -- -- -- --
2021-02-08 22:00:00 -- -- -- -- -- -- -- -- --
2021-02-08 21:00:00 -- -- -- -- -- -- -- -- --
2021-02-08 20:00:00 -- -- -- -- -- -- -- -- --
2021-02-08 19:00:00 -- -- -- -- -- -- -- -- --
2021-02-08 18:00:00 -- -- -- -- -- -- -- -- --
2021-02-08 17:00:00 -- -- -- -- -- -- -- -- --
2021-02-08 16:00:00 -- -- -- -- -- -- -- -- --
2021-02-08 15:00:00 -- -- -- -- -- -- -- -- --
2021-02-08 14:00:00 -- -- -- -- -- -- -- -- --
2021-02-08 13:00:00 -- -- -- -- -- -- -- -- --
2021-02-08 12:00:00 -- -- -- -- -- -- -- -- --
2021-02-08 11:00:00 -- -- -- -- -- -- -- -- --
2021-02-08 10:00:00 -- -- -- -- -- -- -- -- --
2021-02-08 09:00:00 -- -- -- -- -- -- -- -- --
2021-02-08 08:00:00 -- -- -- -- -- -- -- -- --
2021-02-08 07:00:00 -- -- -- -- -- -- -- -- --
2021-02-08 06:00:00 -- -- -- -- -- -- -- -- --
2021-02-08 05:00:00 -- -- -- -- -- -- -- -- --
2021-02-08 04:00:00 -- -- -- -- -- -- -- -- --
2021-02-08 03:00:00 -- -- -- -- -- -- -- -- --
2021-02-08 02:00:00 -- -- -- -- -- -- -- -- --
2021-02-08 01:00:00 -- -- -- -- -- -- -- -- --
2021-02-08 00:00:00 -- -- -- -- -- -- -- -- --
2021-02-07 23:00:00 -- -- -- -- -- -- -- -- --
2021-02-07 22:00:00 -- -- -- -- -- -- -- -- --
2021-02-07 21:00:00 -- -- -- -- -- -- -- -- --
2021-02-07 20:00:00 -- -- -- -- -- -- -- -- --
2021-02-07 19:00:00 -- -- -- -- -- -- -- -- --
2021-02-07 18:00:00 -- -- -- -- -- -- -- -- --
2021-02-07 17:00:00 -- -- -- -- -- -- -- -- --
2021-02-07 16:00:00 -- -- -- -- -- -- -- -- --
2021-02-07 15:00:00 -- -- -- -- -- -- -- -- --
2021-02-07 14:00:00 -- -- -- -- -- -- -- -- --
2021-02-07 13:00:00 -- -- -- -- -- -- -- -- --
2021-02-07 12:00:00 -- -- -- -- -- -- -- -- --
2021-02-07 11:00:00 -- -- -- -- -- -- -- -- --
2021-02-07 10:00:00 -- -- -- -- -- -- -- -- --
2021-02-07 09:00:00 -- -- -- -- -- -- -- -- --
2021-02-07 08:00:00 -- -- -- -- -- -- -- -- --
2021-02-07 07:00:00 -- -- -- -- -- -- -- -- --
2021-02-07 06:00:00 -- -- -- -- -- -- -- -- --
2021-02-07 05:00:00 -- -- -- -- -- -- -- -- --
2021-02-07 04:00:00 -- -- -- -- -- -- -- -- --
2021-02-07 03:00:00 -- -- -- -- -- -- -- -- --
2021-02-07 02:00:00 -- -- -- -- -- -- -- -- --
2021-02-07 01:00:00 -- -- -- -- -- -- -- -- --
2021-02-07 00:00:00 -- -- -- -- -- -- -- -- --
2021-02-06 23:00:00 -- -- -- -- -- -- -- -- --
2021-02-06 22:00:00 -- -- -- -- -- -- -- -- --
2021-02-06 21:00:00 -- -- -- -- -- -- -- -- --
2021-02-06 20:00:00 -- -- -- -- -- -- -- -- --
2021-02-06 19:00:00 -- -- -- -- -- -- -- -- --
2021-02-06 18:00:00 -- -- -- -- -- -- -- -- --
2021-02-06 17:00:00 -- -- -- -- -- -- -- -- --
2021-02-06 16:00:00 -- -- -- -- -- -- -- -- --
2021-02-06 15:00:00 -- -- -- -- -- -- -- -- --
2021-02-06 14:00:00 -- -- -- -- -- -- -- -- --
2021-02-06 13:00:00 -- -- -- -- -- -- -- -- --
2021-02-06 12:00:00 -- -- -- -- -- -- -- -- --
2021-02-06 11:00:00 -- -- -- -- -- -- -- -- --
2021-02-06 10:00:00 -- -- -- -- -- -- -- -- --
2021-02-06 09:00:00 -- -- -- -- -- -- -- -- --
2021-02-06 08:00:00 -- -- -- -- -- -- -- -- --
2021-02-06 07:00:00 -- -- -- -- -- -- -- -- --
2021-02-06 06:00:00 -- -- -- -- -- -- -- -- --
2021-02-06 05:00:00 -- -- -- -- -- -- -- -- --
2021-02-06 04:00:00 -- -- -- -- -- -- -- -- --
2021-02-06 03:00:00 -- -- -- -- -- -- -- -- --
2021-02-06 02:00:00 -- -- -- -- -- -- -- -- --
2021-02-06 01:00:00 -- -- -- -- -- -- -- -- --
2021-02-06 00:00:00 -- -- -- -- -- -- -- -- --
2021-02-05 23:00:00 -- -- -- -- -- -- -- -- --
2021-02-05 22:00:00 -- -- -- -- -- -- -- -- --
2021-02-05 21:00:00 -- -- -- -- -- -- -- -- --
2021-02-05 20:00:00 -- -- -- -- -- -- -- -- --
2021-02-05 19:00:00 -- -- -- -- -- -- -- -- --
2021-02-05 18:00:00 -- -- -- -- -- -- -- -- --
2021-02-05 17:00:00 -- -- -- -- -- -- -- -- --
2021-02-05 16:00:00 -- -- -- -- -- -- -- -- --
2021-02-05 15:00:00 -- -- -- -- -- -- -- -- --
2021-02-05 14:00:00 -- -- -- -- -- -- -- -- --
2021-02-05 13:00:00 -- -- -- -- -- -- -- -- --
2021-02-05 12:00:00 15.6 18 Sudeste 40 Sudeste 0 892.2 -- 36
2021-02-05 11:00:00 13.3 5 Sudoeste 14 Noroeste 0 892 -- 46
2021-02-05 10:00:00 11.8 4 Norte 18 Norte 0 892.2 -- 51
2021-02-05 09:00:00 10.2 9 Nordeste 23 Norte 0 892.5 -- 58
2021-02-05 08:00:00 9.5 12 Nordeste 20 Norte 0 893 -- 62
2021-02-05 07:00:00 10 16 Nordeste 25 Norte 0 893.2 -- 60
2021-02-05 06:00:00 10.2 11 Norte 20 Norte 0 893.5 -- 60
2021-02-05 05:00:00 10 8 Norte 18 Nordeste 0 893.9 -- 63
2021-02-05 04:00:00 10.6 14 Norte 24 Norte 0 894.1 -- 60
2021-02-05 03:00:00 11 12 Norte 21 Norte 0 894.6 -- 57
2021-02-05 02:00:00 11.6 8 Norte 20 Nordeste 0 894.9 -- 53
2021-02-05 01:00:00 11.2 5 Nordeste 15 Nordeste 0 895.5 -- 52
2021-02-05 00:00:00 11.9 10 Nordeste 28 Sur 0 895.6 -- 48
2021-02-04 23:00:00 11.9 13 Sudeste 28 Sudeste 0 894.9 -- 50
2021-02-04 22:00:00 11.2 11 Sudeste 27 Sur 0 894.5 -- 53
2021-02-04 21:00:00 11.2 7 Sudeste 22 Sudeste 0 894 -- 52
2021-02-04 20:00:00 11.2 9 Sudeste 23 Sudeste 0 893.8 -- 54
2021-02-04 19:00:00 11.5 6 Sur 20 Sudeste 0 893.3 -- 53
2021-02-04 18:00:00 12.7 10 Sudeste 28 Sur 0 893 -- 49
2021-02-04 17:00:00 13.6 14 Sur 31 Sur 0 893.1 -- 47
2021-02-04 16:00:00 14.2 15 Sur 31 Sudeste 0 893.2 -- 47
2021-02-04 15:00:00 13.8 21 Sur 34 Sur 0 893.3 -- 51
2021-02-04 14:00:00 13.8 17 Sudeste 31 Nordeste 0 893.8 -- 53
2021-02-04 13:00:00 13.2 8 Este 20 Sur 0 895 -- 56
2021-02-04 12:00:00 11.6 9 Sudeste 21 Sudeste 0 896 -- 63
2021-02-04 11:00:00 11.2 16 Sudeste 29 Sur 0 896.4 -- 65
2021-02-04 10:00:00 10 5 Oeste 20 Nordeste 0 896.2 -- 74
2021-02-04 09:00:00 9.3 11 Sudeste 26 Sudeste 0 896.4 -- 77
2021-02-04 08:00:00 9.5 4 Sudoeste 14 Este 0 895.8 -- 74
2021-02-04 07:00:00 9.6 7 Sudeste 18 Sur 0 895.7 -- 73
2021-02-04 06:00:00 9.7 4 Nordeste 20 Sudeste 0 895.7 -- 72
2021-02-04 05:00:00 9.6 9 Sudeste 26 Sudeste 0 895.9 -- 71
2021-02-04 04:00:00 9.8 10 Sudeste 27 Sur 0 896 -- 70
2021-02-04 03:00:00 9.6 12 Sur 27 Sur 0 896.4 -- 71
2021-02-04 02:00:00 9.4 8 Sudeste 33 Sudeste 0 896.5 -- 73
2021-02-04 01:00:00 9.3 13 Sudeste 30 Sudeste 0 897 -- 73
2021-02-04 00:00:00 9.1 9 Sudeste 20 Sudeste 0 896.8 -- 76
2021-02-03 23:00:00 8.9 4 Este 17 Este 0 896.7 -- 78
2021-02-03 22:00:00 8.3 3 Norte 10 Norte 0.2 896.7 -- 84
2021-02-03 21:00:00 8.1 3 Oeste 17 Norte 0.2 896.5 -- 87
2021-02-03 20:00:00 8.1 12 Norte 16 Norte 0.8 896.6 -- 87
2021-02-03 19:00:00 8.5 5 Norte 17 Nordeste 0.4 896.4 -- 84
2021-02-03 18:00:00 8.3 13 Norte 27 Nordeste 0.8 896.1 -- 83
2021-02-03 17:00:00 9.4 5 Noroeste 12 Norte 0 896.2 -- 78
2021-02-03 16:00:00 10.1 5 Nordeste 14 Sudeste 0 896.2 -- 73
2021-02-03 15:00:00 10.8 9 Sur 24 Oeste 0 896.2 -- 67
2021-02-03 14:00:00 10.5 13 Sur 25 Sur 0 896.1 -- 66
2021-02-03 13:00:00 10.6 15 Sur 28 Sur 0 896.5 -- 66
2021-02-03 12:00:00 10.1 7 Sur 19 Sur 0 896.7 -- 67
2021-02-03 11:00:00 9.2 8 Sudeste 17 Sudeste 0 896.5 -- 70
2021-02-03 10:00:00 8.4 5 Sur 12 Oeste 0 896.4 -- 74
2021-02-03 09:00:00 7.4 3 Oeste 12 Nordeste 0 895.7 -- 81
2021-02-03 08:00:00 7.7 4 Noroeste 15 Este 0 895.5 -- 78
2021-02-03 07:00:00 7.7 5 Nordeste 18 Este 0 894.8 -- 78
2021-02-03 06:00:00 7.6 6 Sur 24 Sur 0 895.3 -- 78
2021-02-03 05:00:00 7.8 5 Nordeste 21 Nordeste 0 895.6 -- 78
2021-02-03 04:00:00 7.3 9 Nordeste 17 Norte 0 895.7 -- 81
2021-02-03 03:00:00 7.4 2 Norte 18 Sudoeste 0 896.3 -- 79
2021-02-03 02:00:00 8.7 4 Noroeste 22 Norte 0 896.1 -- 72
2021-02-03 01:00:00 6.9 10 Nordeste 25 Nordeste 0 896 -- 82
2021-02-03 00:00:00 8.4 11 Norte 23 Norte 0 896.5 -- 77
2021-02-02 23:00:00 8 13 Nordeste 22 Nordeste 0 896.7 -- 79
2021-02-02 22:00:00 8.2 8 Nordeste 23 Norte 0 896.9 -- 79
2021-02-02 21:00:00 8.8 12 Nordeste 20 Norte 0 897.2 -- 78
2021-02-02 20:00:00 9.6 8 Norte 17 Norte 0 897.2 -- 76
2021-02-02 19:00:00 10 12 Nordeste 18 Nordeste 0 897 -- 76
2021-02-02 18:00:00 11.5 4 Nordeste 13 Sudoeste 0 897 -- 68
2021-02-02 17:00:00 12.9 6 Sudoeste 12 Oeste 0 896.8 -- 61
2021-02-02 16:00:00 14.3 8 Sur 16 Sur 0 896.9 -- 56
2021-02-02 15:00:00 14.5 6 Sur 17 Sur 0 897.4 -- 55
2021-02-02 14:00:00 13.4 9 Sudoeste 20 Sudoeste 0 897.8 -- 59
2021-02-02 13:00:00 13.8 8 Sudoeste 18 Sudoeste 0 898.7 -- 57
2021-02-02 12:00:00 12.3 7 Sur 21 Oeste 0 899.1 -- 63
2021-02-02 11:00:00 9.6 3 Este 9 Nordeste 0 898.9 -- 78
2021-02-02 10:00:00 8.6 5 Nordeste 9 Nordeste 0 898.6 -- 82
2021-02-02 09:00:00 8.4 5 Norte 17 Oeste 0 898.5 -- 80
2021-02-02 08:00:00 8.8 6 Norte 23 Oeste 0 898.1 -- 78
2021-02-02 07:00:00 8.9 7 Norte 17 Noroeste 0 897.9 -- 76
2021-02-02 06:00:00 7.4 3 Norte 12 Oeste 0 897.7 -- 89
2021-02-02 05:00:00 7.4 3 Sudeste 12 Norte 0 897.5 -- 88
2021-02-02 04:00:00 7 7 Norte 12 Norte 0 897.6 -- 90
2021-02-02 03:00:00 7.4 4 Sudoeste 25 Oeste 0 897.5 -- 88
2021-02-02 02:00:00 8 13 Oeste 26 Noroeste 0 897.4 -- 87
2021-02-02 01:00:00 6.9 3 Sudoeste 9 Oeste 0.4 897.4 -- 90
2021-02-02 00:00:00 6.6 3 Nordeste 12 Oeste 0 897.4 -- 89
2021-02-01 23:00:00 7.6 6 Oeste 16 Oeste 0 897.1 -- 81
2021-02-01 22:00:00 8.7 9 Noroeste 23 Noroeste 0.2 896.9 -- 69
2021-02-01 21:00:00 9.5 9 Norte 33 Noroeste 0 896.8 -- 59
2021-02-01 20:00:00 8.8 11 Norte 32 Norte 0 896.5 -- 66
2021-02-01 19:00:00 7.6 4 Oeste 21 Oeste 0 896.4 -- 88
2021-02-01 18:00:00 7.8 4 Oeste 17 Oeste 0.2 895.6 -- 86
2021-02-01 17:00:00 8.2 6 Sudoeste 21 Oeste 0.2 894.7 -- 84
2021-02-01 16:00:00 8.8 7 Oeste 31 Sudoeste 0 894 -- 82
2021-02-01 15:00:00 8.7 6 Sudoeste 19 Oeste 0.2 893.6 -- 82
2021-02-01 14:00:00 7.3 6 Sudoeste 30 Sudoeste 0.6 893.8 -- 86
2021-02-01 13:00:00 7.1 8 Sudoeste 31 Sudoeste 0.6 893.8 -- 86
2021-02-01 12:00:00 7.4 5 Oeste 42 Norte 0 893.3 -- 77
2021-02-01 11:00:00 6.9 8 Oeste 25 Oeste 0 892.8 -- 73
2021-02-01 10:00:00 6.5 12 Oeste 32 Sur 0 891.4 -- 78
2021-02-01 09:00:00 5.4 8 Oeste 27 Sudoeste 0.4 890.9 -- 88
2021-02-01 08:00:00 5.1 10 Oeste 21 Oeste 0.4 889.9 -- 88
2021-02-01 07:00:00 5.1 7 Oeste 18 Oeste 0.8 889.2 -- 88
2021-02-01 06:00:00 5.1 5 Sur 24 Oeste 1.4 889.3 -- 89
2021-02-01 05:00:00 5.3 6 Noroeste 23 Noroeste 1.6 889.2 -- 88
2021-02-01 04:00:00 5.6 5 Norte 40 Sudoeste 1.4 889 -- 85
2021-02-01 03:00:00 6.2 6 Oeste 24 Noroeste 1 888.8 -- 81
2021-02-01 02:00:00 6 10 Noroeste 51 Oeste 2.2 888.6 -- 86
2021-02-01 01:00:00 6.7 16 Norte 44 Noroeste 2 888.8 -- 81
2021-02-01 00:00:00 7.6 6 Noroeste 24 Noroeste 0.8 888.3 -- 82
2021-01-31 23:00:00 7.9 7 Norte 17 Nordeste 0 888.1 -- 82
2021-01-31 22:00:00 7.9 5 Norte 14 Nordeste 0 888.8 -- 85
2021-01-31 21:00:00 7.5 9 Norte 15 Norte 0 889.3 -- 82
2021-01-31 20:00:00 6 9 Norte 14 Norte 0 889.9 -- 86
2021-01-31 19:00:00 5.9 8 Norte 13 Nordeste 0 890.1 -- 89
2021-01-31 18:00:00 7 6 Oeste 17 Sudoeste 0 890.3 -- 87
2021-01-31 17:00:00 7.2 7 Oeste 11 Sudoeste 0.2 890.3 -- 90
2021-01-31 16:00:00 7 5 Sudoeste 17 Sudoeste 0.2 890.3 -- 90
2021-01-31 15:00:00 6.8 12 Sudoeste 24 Sudoeste 0.6 890.3 -- 88
2021-01-31 14:00:00 8.9 8 Oeste 31 Oeste 0.2 890.5 -- 76
2021-01-31 13:00:00 9.7 11 Sudoeste 35 Oeste 0 890.8 -- 73
2021-01-31 12:00:00 9 9 Oeste 28 Sudoeste 0 891.3 -- 76
2021-01-31 11:00:00 6.8 14 Oeste 31 Sudoeste 0.2 891.5 -- 86
2021-01-31 10:00:00 4.9 17 Oeste 31 Noroeste 0.4 891.4 -- 88
2021-01-31 09:00:00 3.1 13 Noroeste 26 Sudoeste 0.6 890.9 -- 91
2021-01-31 08:00:00 2.2 7 Noroeste 13 Noroeste 1.2 890.2 -- 92
2021-01-31 07:00:00 1.4 6 Oeste 12 Oeste 2.4 889.5 -- 93
2021-01-31 06:00:00 0.7 2 Oeste 7 Noroeste 3 889.4 -- 93
2021-01-31 05:00:00 0.7 2 Noroeste 7 Oeste 3 889.2 -- 92
2021-01-31 04:00:00 0.8 2 Norte 5 Nordeste 1.6 889.2 -- 93
2021-01-31 03:00:00 0.8 2 Noroeste 8 Norte 1.8 889.5 -- 92
2021-01-31 02:00:00 1 4 Norte 6 Norte 2 889.2 -- 91
2021-01-31 01:00:00 1.4 3 Noroeste 7 Norte 1.6 889.5 -- 91
2021-01-31 00:00:00 1.8 4 Norte 9 Oeste 1.8 889.5 -- 90